sensor_id;sensor_type;location;lat;lon;timestamp;temperature;humidity
21799;DHT22;24973;47.178;15.316;2022-12-10T00:00:18;3.00;99.90
21799;DHT22;24973;47.178;15.316;2022-12-10T00:03:07;3.00;99.90
21799;DHT22;24973;47.178;15.316;2022-12-10T00:05:59;3.00;99.90
21799;DHT22;24973;47.178;15.316;2022-12-10T00:08:49;3.00;99.90
21799;DHT22;24973;47.178;15.316;2022-12-10T00:11:38;3.00;99.90
21799;DHT22;24973;47.178;15.316;2022-12-10T00:14:28;3.00;99.90
21799;DHT22;24973;47.178;15.316;2022-12-10T00:17:17;3.00;99.90
21799;DHT22;24973;47.178;15.316;2022-12-10T00:20:07;3.10;99.90
21799;DHT22;24973;47.178;15.316;2022-12-10T00:22:56;3.10;99.90
21799;DHT22;24973;47.178;15.316;2022-12-10T00:25:45;3.10;99.90
21799;DHT22;24973;47.178;15.316;2022-12-10T00:28:34;3.30;99.90
21799;DHT22;24973;47.178;15.316;2022-12-10T00:31:26;3.10;99.90
21799;DHT22;24973;47.178;15.316;2022-12-10T00:34:16;3.20;99.90
21799;DHT22;24973;47.178;15.316;2022-12-10T00:37:05;3.20;99.90
21799;DHT22;24973;47.178;15.316;2022-12-10T00:39:53;3.20;99.90
21799;DHT22;24973;47.178;15.316;2022-12-10T00:42:42;3.10;99.90
21799;DHT22;24973;47.178;15.316;2022-12-10T00:45:31;3.10;99.90
21799;DHT22;24973;47.178;15.316;2022-12-10T00:48:22;3.10;99.90
21799;DHT22;24973;47.178;15.316;2022-12-10T00:51:13;3.10;99.90
21799;DHT22;24973;47.178;15.316;2022-12-10T00:54:03;3.10;99.90
21799;DHT22;24973;47.178;15.316;2022-12-10T00:56:52;3.10;99.90
21799;DHT22;24973;47.178;15.316;2022-12-10T00:59:41;3.00;99.90
21799;DHT22;24973;47.178;15.316;2022-12-10T01:02:29;3.00;99.90
21799;DHT22;24973;47.178;15.316;2022-12-10T01:05:20;2.90;99.90
21799;DHT22;24973;47.178;15.316;2022-12-10T01:08:08;2.90;99.90
21799;DHT22;24973;47.178;15.316;2022-12-10T01:10:57;3.00;99.90
21799;DHT22;24973;47.178;15.316;2022-12-10T01:13:47;2.90;99.90
21799;DHT22;24973;47.178;15.316;2022-12-10T01:16:36;3.00;99.90
21799;DHT22;24973;47.178;15.316;2022-12-10T01:19:25;2.90;99.90
21799;DHT22;24973;47.178;15.316;2022-12-10T01:22:16;2.90;99.90
21799;DHT22;24973;47.178;15.316;2022-12-10T01:25:05;2.90;99.90
21799;DHT22;24973;47.178;15.316;2022-12-10T01:27:54;2.80;99.90
21799;DHT22;24973;47.178;15.316;2022-12-10T01:30:43;2.80;99.90
21799;DHT22;24973;47.178;15.316;2022-12-10T01:33:32;2.80;99.90
21799;DHT22;24973;47.178;15.316;2022-12-10T01:36:22;2.80;99.90
21799;DHT22;24973;47.178;15.316;2022-12-10T01:39:16;2.80;99.90
21799;DHT22;24973;47.178;15.316;2022-12-10T01:42:05;2.90;99.90
21799;DHT22;24973;47.178;15.316;2022-12-10T01:45:02;2.70;99.90
21799;DHT22;24973;47.178;15.316;2022-12-10T01:47:53;2.60;99.90
21799;DHT22;24973;47.178;15.316;2022-12-10T01:50:42;2.60;99.90
21799;DHT22;24973;47.178;15.316;2022-12-10T01:53:31;2.60;99.90
21799;DHT22;24973;47.178;15.316;2022-12-10T01:56:22;2.60;99.90
21799;DHT22;24973;47.178;15.316;2022-12-10T01:59:12;2.60;99.90
21799;DHT22;24973;47.178;15.316;2022-12-10T02:02:04;2.60;99.90
21799;DHT22;24973;47.178;15.316;2022-12-10T02:05:07;2.60;99.90
21799;DHT22;24973;47.178;15.316;2022-12-10T02:08:06;2.50;99.90
21799;DHT22;24973;47.178;15.316;2022-12-10T02:11:03;2.50;99.90
21799;DHT22;24973;47.178;15.316;2022-12-10T02:14:01;2.50;99.90
21799;DHT22;24973;47.178;15.316;2022-12-10T02:16:57;3.30;99.90
21799;DHT22;24973;47.178;15.316;2022-12-10T02:19:58;2.50;99.90
21799;DHT22;24973;47.178;15.316;2022-12-10T02:22:56;2.50;99.90
21799;DHT22;24973;47.178;15.316;2022-12-10T02:25:48;2.50;99.90
21799;DHT22;24973;47.178;15.316;2022-12-10T02:28:49;2.50;99.90
21799;DHT22;24973;47.178;15.316;2022-12-10T02:31:44;2.50;99.90
21799;DHT22;24973;47.178;15.316;2022-12-10T02:34:37;2.50;99.90
21799;DHT22;24973;47.178;15.316;2022-12-10T02:37:30;2.50;99.90
21799;DHT22;24973;47.178;15.316;2022-12-10T02:40:24;2.40;99.90
21799;DHT22;24973;47.178;15.316;2022-12-10T02:43:17;2.40;99.90
21799;DHT22;24973;47.178;15.316;2022-12-10T02:46:07;2.40;99.90
21799;DHT22;24973;47.178;15.316;2022-12-10T02:48:58;2.40;99.90
21799;DHT22;24973;47.178;15.316;2022-12-10T02:51:48;2.40;99.90
21799;DHT22;24973;47.178;15.316;2022-12-10T02:54:40;2.30;99.90
21799;DHT22;24973;47.178;15.316;2022-12-10T02:57:35;2.30;99.90
21799;DHT22;24973;47.178;15.316;2022-12-10T03:00:25;2.50;99.90
21799;DHT22;24973;47.178;15.316;2022-12-10T03:03:23;2.40;99.90
21799;DHT22;24973;47.178;15.316;2022-12-10T03:06:22;2.40;99.90
21799;DHT22;24973;47.178;15.316;2022-12-10T03:09:18;2.50;99.90
21799;DHT22;24973;47.178;15.316;2022-12-10T03:12:14;2.50;99.90
21799;DHT22;24973;47.178;15.316;2022-12-10T03:15:07;2.50;99.90
21799;DHT22;24973;47.178;15.316;2022-12-10T03:17:59;2.60;99.90
21799;DHT22;24973;47.178;15.316;2022-12-10T03:20:53;2.50;99.90
21799;DHT22;24973;47.178;15.316;2022-12-10T03:23:48;2.50;99.90
21799;DHT22;24973;47.178;15.316;2022-12-10T03:26:38;2.50;99.90
21799;DHT22;24973;47.178;15.316;2022-12-10T03:29:32;2.50;99.90
21799;DHT22;24973;47.178;15.316;2022-12-10T03:32:26;2.50;99.90
21799;DHT22;24973;47.178;15.316;2022-12-10T03:35:16;2.40;99.90
21799;DHT22;24973;47.178;15.316;2022-12-10T03:38:06;2.40;99.90
21799;DHT22;24973;47.178;15.316;2022-12-10T03:40:56;2.40;99.90
21799;DHT22;24973;47.178;15.316;2022-12-10T03:43:52;2.40;99.90
21799;DHT22;24973;47.178;15.316;2022-12-10T03:46:42;2.30;99.90
21799;DHT22;24973;47.178;15.316;2022-12-10T03:49:31;2.40;99.90
21799;DHT22;24973;47.178;15.316;2022-12-10T03:52:20;2.40;99.90
21799;DHT22;24973;47.178;15.316;2022-12-10T03:55:09;2.40;99.90
21799;DHT22;24973;47.178;15.316;2022-12-10T03:57:59;2.50;99.90
21799;DHT22;24973;47.178;15.316;2022-12-10T04:00:48;2.40;99.90
21799;DHT22;24973;47.178;15.316;2022-12-10T04:03:38;2.50;99.90
21799;DHT22;24973;47.178;15.316;2022-12-10T04:06:28;2.50;99.90
21799;DHT22;24973;47.178;15.316;2022-12-10T04:09:17;2.50;99.90
21799;DHT22;24973;47.178;15.316;2022-12-10T04:12:06;2.50;99.90
21799;DHT22;24973;47.178;15.316;2022-12-10T04:14:56;2.50;99.90
21799;DHT22;24973;47.178;15.316;2022-12-10T04:18:02;2.60;99.90
21799;DHT22;24973;47.178;15.316;2022-12-10T04:20:51;2.60;99.90
21799;DHT22;24973;47.178;15.316;2022-12-10T04:23:57;2.60;99.90
21799;DHT22;24973;47.178;15.316;2022-12-10T04:27:07;2.70;99.90
21799;DHT22;24973;47.178;15.316;2022-12-10T04:29:59;2.60;99.90
21799;DHT22;24973;47.178;15.316;2022-12-10T04:32:48;2.70;99.90
21799;DHT22;24973;47.178;15.316;2022-12-10T04:35:36;2.60;99.90
21799;DHT22;24973;47.178;15.316;2022-12-10T04:38:25;2.70;99.90
21799;DHT22;24973;47.178;15.316;2022-12-10T04:41:14;2.70;99.90
21799;DHT22;24973;47.178;15.316;2022-12-10T04:44:03;2.70;99.90
21799;DHT22;24973;47.178;15.316;2022-12-10T04:46:53;2.70;99.90
21799;DHT22;24973;47.178;15.316;2022-12-10T04:49:42;2.70;99.90
21799;DHT22;24973;47.178;15.316;2022-12-10T04:52:31;2.80;99.90
21799;DHT22;24973;47.178;15.316;2022-12-10T04:55:19;2.80;99.90
21799;DHT22;24973;47.178;15.316;2022-12-10T04:58:08;2.80;99.90
21799;DHT22;24973;47.178;15.316;2022-12-10T05:01:01;2.80;99.90
21799;DHT22;24973;47.178;15.316;2022-12-10T05:03:52;2.70;99.90
21799;DHT22;24973;47.178;15.316;2022-12-10T05:06:41;2.60;99.90
21799;DHT22;24973;47.178;15.316;2022-12-10T05:09:30;2.70;99.90
21799;DHT22;24973;47.178;15.316;2022-12-10T05:12:19;2.70;99.90
21799;DHT22;24973;47.178;15.316;2022-12-10T05:15:08;2.80;99.90
21799;DHT22;24973;47.178;15.316;2022-12-10T05:17:58;2.80;99.90
21799;DHT22;24973;47.178;15.316;2022-12-10T05:20:48;2.80;99.90
21799;DHT22;24973;47.178;15.316;2022-12-10T05:23:38;2.80;99.90
21799;DHT22;24973;47.178;15.316;2022-12-10T05:26:26;2.80;99.90
21799;DHT22;24973;47.178;15.316;2022-12-10T05:29:15;2.80;99.90
21799;DHT22;24973;47.178;15.316;2022-12-10T05:32:04;2.80;99.90
21799;DHT22;24973;47.178;15.316;2022-12-10T05:34:53;2.80;99.90
21799;DHT22;24973;47.178;15.316;2022-12-10T05:37:43;2.80;99.90
21799;DHT22;24973;47.178;15.316;2022-12-10T05:40:34;2.90;99.90
21799;DHT22;24973;47.178;15.316;2022-12-10T05:43:23;2.90;99.90
21799;DHT22;24973;47.178;15.316;2022-12-10T05:46:16;2.90;99.90
21799;DHT22;24973;47.178;15.316;2022-12-10T05:49:06;2.90;99.90
21799;DHT22;24973;47.178;15.316;2022-12-10T05:51:55;2.90;99.90
21799;DHT22;24973;47.178;15.316;2022-12-10T05:54:45;2.90;99.90
21799;DHT22;24973;47.178;15.316;2022-12-10T05:57:35;2.90;99.90
21799;DHT22;24973;47.178;15.316;2022-12-10T06:00:24;2.90;99.90
21799;DHT22;24973;47.178;15.316;2022-12-10T06:03:13;2.90;99.90
21799;DHT22;24973;47.178;15.316;2022-12-10T06:06:03;2.90;99.90
21799;DHT22;24973;47.178;15.316;2022-12-10T06:08:52;3.00;99.90
21799;DHT22;24973;47.178;15.316;2022-12-10T06:11:42;3.00;99.90
21799;DHT22;24973;47.178;15.316;2022-12-10T06:14:31;3.00;99.90
21799;DHT22;24973;47.178;15.316;2022-12-10T06:17:20;3.00;99.90
21799;DHT22;24973;47.178;15.316;2022-12-10T06:20:10;3.00;99.90
21799;DHT22;24973;47.178;15.316;2022-12-10T06:22:59;3.00;99.90
21799;DHT22;24973;47.178;15.316;2022-12-10T06:25:48;3.00;99.90
21799;DHT22;24973;47.178;15.316;2022-12-10T06:28:39;3.00;99.90
21799;DHT22;24973;47.178;15.316;2022-12-10T06:31:27;2.90;99.90
21799;DHT22;24973;47.178;15.316;2022-12-10T06:34:16;2.90;99.90
21799;DHT22;24973;47.178;15.316;2022-12-10T06:37:05;3.00;99.90
21799;DHT22;24973;47.178;15.316;2022-12-10T06:39:54;3.00;99.90
21799;DHT22;24973;47.178;15.316;2022-12-10T06:42:42;3.00;99.90
21799;DHT22;24973;47.178;15.316;2022-12-10T06:45:33;3.00;99.90
21799;DHT22;24973;47.178;15.316;2022-12-10T06:48:21;3.00;99.90
21799;DHT22;24973;47.178;15.316;2022-12-10T06:51:11;3.00;99.90
21799;DHT22;24973;47.178;15.316;2022-12-10T06:54:01;3.00;99.90
21799;DHT22;24973;47.178;15.316;2022-12-10T06:56:50;3.10;99.90
21799;DHT22;24973;47.178;15.316;2022-12-10T06:59:39;3.10;99.90
21799;DHT22;24973;47.178;15.316;2022-12-10T07:02:29;3.10;99.90
21799;DHT22;24973;47.178;15.316;2022-12-10T07:05:18;3.10;99.90
21799;DHT22;24973;47.178;15.316;2022-12-10T07:08:08;3.10;99.90
21799;DHT22;24973;47.178;15.316;2022-12-10T07:10:56;3.00;99.90
21799;DHT22;24973;47.178;15.316;2022-12-10T07:13:45;3.10;99.90
21799;DHT22;24973;47.178;15.316;2022-12-10T07:16:34;3.10;99.90
21799;DHT22;24973;47.178;15.316;2022-12-10T07:19:24;3.00;99.90
21799;DHT22;24973;47.178;15.316;2022-12-10T07:22:13;3.00;99.90
21799;DHT22;24973;47.178;15.316;2022-12-10T07:25:02;3.00;99.90
21799;DHT22;24973;47.178;15.316;2022-12-10T07:27:51;3.00;99.90
21799;DHT22;24973;47.178;15.316;2022-12-10T07:30:43;3.00;99.90
21799;DHT22;24973;47.178;15.316;2022-12-10T07:33:32;3.10;99.90
21799;DHT22;24973;47.178;15.316;2022-12-10T07:36:23;3.10;99.90
21799;DHT22;24973;47.178;15.316;2022-12-10T07:39:13;3.10;99.90
21799;DHT22;24973;47.178;15.316;2022-12-10T07:42:04;3.10;99.90
21799;DHT22;24973;47.178;15.316;2022-12-10T07:44:53;3.20;99.90
21799;DHT22;24973;47.178;15.316;2022-12-10T07:47:42;3.20;99.90
21799;DHT22;24973;47.178;15.316;2022-12-10T07:50:30;3.30;99.90
21799;DHT22;24973;47.178;15.316;2022-12-10T07:53:21;3.30;99.90
21799;DHT22;24973;47.178;15.316;2022-12-10T07:56:10;3.30;99.90
21799;DHT22;24973;47.178;15.316;2022-12-10T07:58:59;3.40;99.90
21799;DHT22;24973;47.178;15.316;2022-12-10T08:01:48;3.40;99.90
21799;DHT22;24973;47.178;15.316;2022-12-10T08:04:36;3.30;99.90
21799;DHT22;24973;47.178;15.316;2022-12-10T08:07:25;3.40;99.90
21799;DHT22;24973;47.178;15.316;2022-12-10T08:10:16;3.50;99.90
21799;DHT22;24973;47.178;15.316;2022-12-10T08:13:05;3.50;99.90
21799;DHT22;24973;47.178;15.316;2022-12-10T08:15:59;3.50;99.90
21799;DHT22;24973;47.178;15.316;2022-12-10T08:18:49;3.50;99.90
21799;DHT22;24973;47.178;15.316;2022-12-10T08:21:38;3.50;99.90
21799;DHT22;24973;47.178;15.316;2022-12-10T08:24:26;3.50;99.90
21799;DHT22;24973;47.178;15.316;2022-12-10T08:27:16;3.50;99.90
21799;DHT22;24973;47.178;15.316;2022-12-10T08:30:06;3.60;99.90
21799;DHT22;24973;47.178;15.316;2022-12-10T08:32:56;3.60;99.90
21799;DHT22;24973;47.178;15.316;2022-12-10T08:35:44;3.70;99.90
21799;DHT22;24973;47.178;15.316;2022-12-10T08:38:34;3.70;99.90
21799;DHT22;24973;47.178;15.316;2022-12-10T08:41:23;3.70;99.90
21799;DHT22;24973;47.178;15.316;2022-12-10T08:44:13;3.70;99.90
21799;DHT22;24973;47.178;15.316;2022-12-10T08:47:02;3.70;99.90
21799;DHT22;24973;47.178;15.316;2022-12-10T08:49:51;3.70;99.90
21799;DHT22;24973;47.178;15.316;2022-12-10T08:52:39;3.70;99.90
21799;DHT22;24973;47.178;15.316;2022-12-10T08:55:28;3.70;99.90
21799;DHT22;24973;47.178;15.316;2022-12-10T08:58:17;3.70;99.90
21799;DHT22;24973;47.178;15.316;2022-12-10T09:01:08;3.70;99.90
21799;DHT22;24973;47.178;15.316;2022-12-10T09:03:58;3.70;99.90
21799;DHT22;24973;47.178;15.316;2022-12-10T09:06:47;3.80;99.90
21799;DHT22;24973;47.178;15.316;2022-12-10T09:09:37;3.80;99.90
21799;DHT22;24973;47.178;15.316;2022-12-10T09:12:26;3.80;99.90
21799;DHT22;24973;47.178;15.316;2022-12-10T09:15:15;3.80;99.90
21799;DHT22;24973;47.178;15.316;2022-12-10T09:18:05;3.90;99.90
21799;DHT22;24973;47.178;15.316;2022-12-10T09:20:54;3.80;99.90
21799;DHT22;24973;47.178;15.316;2022-12-10T09:23:43;3.90;99.90
21799;DHT22;24973;47.178;15.316;2022-12-10T09:26:31;3.90;99.90
21799;DHT22;24973;47.178;15.316;2022-12-10T09:29:20;3.90;99.90
21799;DHT22;24973;47.178;15.316;2022-12-10T09:32:09;3.90;99.90
21799;DHT22;24973;47.178;15.316;2022-12-10T09:34:59;3.90;99.90
21799;DHT22;24973;47.178;15.316;2022-12-10T09:37:48;4.00;99.90
21799;DHT22;24973;47.178;15.316;2022-12-10T09:40:40;4.00;99.90
21799;DHT22;24973;47.178;15.316;2022-12-10T09:43:44;4.00;99.90
21799;DHT22;24973;47.178;15.316;2022-12-10T09:46:44;4.00;99.90
21799;DHT22;24973;47.178;15.316;2022-12-10T09:49:45;4.00;99.90
21799;DHT22;24973;47.178;15.316;2022-12-10T09:52:43;4.10;99.90
21799;DHT22;24973;47.178;15.316;2022-12-10T09:55:36;4.10;99.90
21799;DHT22;24973;47.178;15.316;2022-12-10T09:58:27;4.10;99.90
21799;DHT22;24973;47.178;15.316;2022-12-10T10:01:19;4.10;99.90
21799;DHT22;24973;47.178;15.316;2022-12-10T10:04:10;4.10;99.90
21799;DHT22;24973;47.178;15.316;2022-12-10T10:06:59;4.10;99.90
21799;DHT22;24973;47.178;15.316;2022-12-10T10:09:51;4.20;99.90
21799;DHT22;24973;47.178;15.316;2022-12-10T10:12:43;4.20;99.90
21799;DHT22;24973;47.178;15.316;2022-12-10T10:15:34;4.10;99.90
21799;DHT22;24973;47.178;15.316;2022-12-10T10:18:32;4.10;99.90
21799;DHT22;24973;47.178;15.316;2022-12-10T10:21:25;4.10;99.90
21799;DHT22;24973;47.178;15.316;2022-12-10T10:24:17;4.10;99.90
21799;DHT22;24973;47.178;15.316;2022-12-10T10:27:14;4.10;99.90
21799;DHT22;24973;47.178;15.316;2022-12-10T10:30:06;4.20;99.90
21799;DHT22;24973;47.178;15.316;2022-12-10T10:33:08;4.10;99.90
21799;DHT22;24973;47.178;15.316;2022-12-10T10:35:58;4.10;99.90
21799;DHT22;24973;47.178;15.316;2022-12-10T10:38:47;4.10;99.90
21799;DHT22;24973;47.178;15.316;2022-12-10T10:41:37;4.20;99.90
21799;DHT22;24973;47.178;15.316;2022-12-10T10:44:35;4.20;99.90
21799;DHT22;24973;47.178;15.316;2022-12-10T10:47:28;4.20;99.90
21799;DHT22;24973;47.178;15.316;2022-12-10T10:50:24;4.20;99.90
21799;DHT22;24973;47.178;15.316;2022-12-10T10:53:30;4.10;99.90
21799;DHT22;24973;47.178;15.316;2022-12-10T10:56:22;4.20;99.90
21799;DHT22;24973;47.178;15.316;2022-12-10T10:59:30;4.20;99.90
21799;DHT22;24973;47.178;15.316;2022-12-10T11:02:23;4.30;99.90
21799;DHT22;24973;47.178;15.316;2022-12-10T11:05:18;4.20;99.90
21799;DHT22;24973;47.178;15.316;2022-12-10T11:08:15;4.30;99.90
21799;DHT22;24973;47.178;15.316;2022-12-10T11:11:11;4.30;99.90
21799;DHT22;24973;47.178;15.316;2022-12-10T11:14:15;4.30;99.90
21799;DHT22;24973;47.178;15.316;2022-12-10T11:17:18;4.30;99.90
21799;DHT22;24973;47.178;15.316;2022-12-10T11:20:17;4.40;99.90
21799;DHT22;24973;47.178;15.316;2022-12-10T11:23:09;4.40;99.90
21799;DHT22;24973;47.178;15.316;2022-12-10T11:26:13;4.40;99.90
21799;DHT22;24973;47.178;15.316;2022-12-10T11:29:19;4.30;99.90
21799;DHT22;24973;47.178;15.316;2022-12-10T11:32:45;4.30;99.90
21799;DHT22;24973;47.178;15.316;2022-12-10T11:35:53;4.30;99.90
21799;DHT22;24973;47.178;15.316;2022-12-10T11:38:53;4.30;99.90
21799;DHT22;24973;47.178;15.316;2022-12-10T11:41:49;4.30;99.90
21799;DHT22;24973;47.178;15.316;2022-12-10T11:44:46;4.30;99.90
21799;DHT22;24973;47.178;15.316;2022-12-10T11:47:48;4.30;99.90
21799;DHT22;24973;47.178;15.316;2022-12-10T11:50:44;4.30;99.90
21799;DHT22;24973;47.178;15.316;2022-12-10T11:53:50;4.30;99.90
21799;DHT22;24973;47.178;15.316;2022-12-10T11:56:49;4.40;99.90
21799;DHT22;24973;47.178;15.316;2022-12-10T11:59:46;4.40;99.90
21799;DHT22;24973;47.178;15.316;2022-12-10T12:03:27;4.50;99.90
21799;DHT22;24973;47.178;15.316;2022-12-10T12:06:36;4.50;99.90
21799;DHT22;24973;47.178;15.316;2022-12-10T12:09:43;4.50;99.90
21799;DHT22;24973;47.178;15.316;2022-12-10T12:12:41;4.50;99.90
21799;DHT22;24973;47.178;15.316;2022-12-10T12:15:39;4.50;99.90
21799;DHT22;24973;47.178;15.316;2022-12-10T12:18:39;4.50;99.90
21799;DHT22;24973;47.178;15.316;2022-12-10T12:21:31;4.50;99.90
21799;DHT22;24973;47.178;15.316;2022-12-10T12:24:25;4.50;99.90
21799;DHT22;24973;47.178;15.316;2022-12-10T12:27:24;4.60;99.90
21799;DHT22;24973;47.178;15.316;2022-12-10T12:30:17;4.60;99.90
21799;DHT22;24973;47.178;15.316;2022-12-10T12:33:11;4.60;99.90
21799;DHT22;24973;47.178;15.316;2022-12-10T12:36:07;4.60;99.90
21799;DHT22;24973;47.178;15.316;2022-12-10T12:39:04;4.60;99.90
21799;DHT22;24973;47.178;15.316;2022-12-10T12:41:59;4.60;99.90
21799;DHT22;24973;47.178;15.316;2022-12-10T12:45:00;5.00;99.90
21799;DHT22;24973;47.178;15.316;2022-12-10T12:48:01;4.60;99.90
21799;DHT22;24973;47.178;15.316;2022-12-10T12:50:55;4.60;99.90
21799;DHT22;24973;47.178;15.316;2022-12-10T12:53:49;4.60;99.90
21799;DHT22;24973;47.178;15.316;2022-12-10T12:56:59;4.50;99.90
21799;DHT22;24973;47.178;15.316;2022-12-10T12:59:56;4.50;99.90
21799;DHT22;24973;47.178;15.316;2022-12-10T13:02:57;4.50;99.90
21799;DHT22;24973;47.178;15.316;2022-12-10T13:05:49;4.50;99.90
21799;DHT22;24973;47.178;15.316;2022-12-10T13:08:43;4.50;99.90
21799;DHT22;24973;47.178;15.316;2022-12-10T13:11:35;4.60;99.90
21799;DHT22;24973;47.178;15.316;2022-12-10T13:14:33;4.60;99.90
21799;DHT22;24973;47.178;15.316;2022-12-10T13:17:27;4.60;99.90
21799;DHT22;24973;47.178;15.316;2022-12-10T13:20:32;4.60;99.90
21799;DHT22;24973;47.178;15.316;2022-12-10T13:23:30;4.60;99.90
21799;DHT22;24973;47.178;15.316;2022-12-10T13:26:25;4.60;99.90
21799;DHT22;24973;47.178;15.316;2022-12-10T13:29:25;4.60;99.90
21799;DHT22;24973;47.178;15.316;2022-12-10T13:32:17;4.60;99.90
21799;DHT22;24973;47.178;15.316;2022-12-10T13:35:26;4.60;99.90
21799;DHT22;24973;47.178;15.316;2022-12-10T13:38:20;4.60;99.90
21799;DHT22;24973;47.178;15.316;2022-12-10T13:41:10;4.70;99.90
21799;DHT22;24973;47.178;15.316;2022-12-10T13:44:36;4.60;99.90
21799;DHT22;24973;47.178;15.316;2022-12-10T13:47:41;4.70;99.90
21799;DHT22;24973;47.178;15.316;2022-12-10T13:50:36;4.70;99.90
21799;DHT22;24973;47.178;15.316;2022-12-10T13:53:37;4.70;99.90
21799;DHT22;24973;47.178;15.316;2022-12-10T13:56:38;4.70;99.90
21799;DHT22;24973;47.178;15.316;2022-12-10T13:59:38;4.60;99.90
21799;DHT22;24973;47.178;15.316;2022-12-10T14:02:52;4.70;99.90
21799;DHT22;24973;47.178;15.316;2022-12-10T14:05:55;4.70;99.90
21799;DHT22;24973;47.178;15.316;2022-12-10T14:08:56;4.70;99.90
21799;DHT22;24973;47.178;15.316;2022-12-10T14:11:50;4.60;99.90
21799;DHT22;24973;47.178;15.316;2022-12-10T14:14:45;4.60;99.90
21799;DHT22;24973;47.178;15.316;2022-12-10T14:17:38;4.60;99.90
21799;DHT22;24973;47.178;15.316;2022-12-10T14:20:30;4.60;99.90
21799;DHT22;24973;47.178;15.316;2022-12-10T14:23:24;4.60;99.90
21799;DHT22;24973;47.178;15.316;2022-12-10T14:26:32;4.60;99.90
21799;DHT22;24973;47.178;15.316;2022-12-10T14:29:21;4.60;99.90
21799;DHT22;24973;47.178;15.316;2022-12-10T14:32:19;4.60;99.90
21799;DHT22;24973;47.178;15.316;2022-12-10T14:35:14;4.60;99.90
21799;DHT22;24973;47.178;15.316;2022-12-10T14:38:17;4.60;99.90
21799;DHT22;24973;47.178;15.316;2022-12-10T14:41:11;4.50;99.90
21799;DHT22;24973;47.178;15.316;2022-12-10T14:44:03;4.50;99.90
21799;DHT22;24973;47.178;15.316;2022-12-10T14:47:03;4.50;99.90
21799;DHT22;24973;47.178;15.316;2022-12-10T14:49:55;4.40;99.90
21799;DHT22;24973;47.178;15.316;2022-12-10T14:52:45;4.40;99.90
21799;DHT22;24973;47.178;15.316;2022-12-10T14:55:38;4.40;99.90
21799;DHT22;24973;47.178;15.316;2022-12-10T14:58:31;4.30;99.90
21799;DHT22;24973;47.178;15.316;2022-12-10T15:01:29;4.30;99.90
21799;DHT22;24973;47.178;15.316;2022-12-10T15:04:20;4.20;99.90
21799;DHT22;24973;47.178;15.316;2022-12-10T15:07:19;4.20;99.90
21799;DHT22;24973;47.178;15.316;2022-12-10T15:10:16;4.20;99.90
21799;DHT22;24973;47.178;15.316;2022-12-10T15:13:15;4.10;99.90
21799;DHT22;24973;47.178;15.316;2022-12-10T15:16:16;4.10;99.90
21799;DHT22;24973;47.178;15.316;2022-12-10T15:19:09;4.10;99.90
21799;DHT22;24973;47.178;15.316;2022-12-10T15:22:19;4.10;99.90
21799;DHT22;24973;47.178;15.316;2022-12-10T15:25:22;4.00;99.90
21799;DHT22;24973;47.178;15.316;2022-12-10T15:28:23;2.20;99.90
21799;DHT22;24973;47.178;15.316;2022-12-10T15:31:19;4.00;99.90
21799;DHT22;24973;47.178;15.316;2022-12-10T15:34:13;3.90;99.90
21799;DHT22;24973;47.178;15.316;2022-12-10T15:37:04;3.90;99.90
21799;DHT22;24973;47.178;15.316;2022-12-10T15:39:57;3.90;99.90
21799;DHT22;24973;47.178;15.316;2022-12-10T15:42:47;3.80;99.90
21799;DHT22;24973;47.178;15.316;2022-12-10T15:45:38;3.80;99.90
21799;DHT22;24973;47.178;15.316;2022-12-10T15:48:30;3.80;99.90
21799;DHT22;24973;47.178;15.316;2022-12-10T15:51:18;3.80;99.90
21799;DHT22;24973;47.178;15.316;2022-12-10T15:54:20;3.80;99.90
21799;DHT22;24973;47.178;15.316;2022-12-10T15:57:14;3.80;99.90
21799;DHT22;24973;47.178;15.316;2022-12-10T16:00:17;3.80;99.90
21799;DHT22;24973;47.178;15.316;2022-12-10T16:03:09;3.80;99.90
21799;DHT22;24973;47.178;15.316;2022-12-10T16:05:59;3.70;99.90
21799;DHT22;24973;47.178;15.316;2022-12-10T16:08:49;3.80;99.90
21799;DHT22;24973;47.178;15.316;2022-12-10T16:11:38;3.70;99.90
21799;DHT22;24973;47.178;15.316;2022-12-10T16:14:28;3.70;99.90
21799;DHT22;24973;47.178;15.316;2022-12-10T16:17:18;3.70;99.90
21799;DHT22;24973;47.178;15.316;2022-12-10T16:20:18;3.70;99.90
21799;DHT22;24973;47.178;15.316;2022-12-10T16:23:09;3.70;99.90
21799;DHT22;24973;47.178;15.316;2022-12-10T16:25:59;3.60;99.90
21799;DHT22;24973;47.178;15.316;2022-12-10T16:28:49;3.60;99.90
21799;DHT22;24973;47.178;15.316;2022-12-10T16:31:43;3.60;99.90
21799;DHT22;24973;47.178;15.316;2022-12-10T16:34:31;3.50;99.90
21799;DHT22;24973;47.178;15.316;2022-12-10T16:37:20;3.50;99.90
21799;DHT22;24973;47.178;15.316;2022-12-10T16:40:10;3.50;99.90
21799;DHT22;24973;47.178;15.316;2022-12-10T16:43:00;3.50;99.90
21799;DHT22;24973;47.178;15.316;2022-12-10T16:45:50;3.50;99.90
21799;DHT22;24973;47.178;15.316;2022-12-10T16:48:40;3.40;99.90
21799;DHT22;24973;47.178;15.316;2022-12-10T16:51:30;3.50;99.90
21799;DHT22;24973;47.178;15.316;2022-12-10T16:54:19;3.40;99.90
21799;DHT22;24973;47.178;15.316;2022-12-10T16:57:11;3.40;99.90
21799;DHT22;24973;47.178;15.316;2022-12-10T17:00:03;3.40;99.90
21799;DHT22;24973;47.178;15.316;2022-12-10T17:02:52;3.40;99.90
21799;DHT22;24973;47.178;15.316;2022-12-10T17:05:42;3.40;99.90
21799;DHT22;24973;47.178;15.316;2022-12-10T17:08:32;3.30;99.90
21799;DHT22;24973;47.178;15.316;2022-12-10T17:11:22;3.30;99.90
21799;DHT22;24973;47.178;15.316;2022-12-10T17:14:33;3.30;99.90
21799;DHT22;24973;47.178;15.316;2022-12-10T17:17:23;3.30;99.90
21799;DHT22;24973;47.178;15.316;2022-12-10T17:20:16;3.30;99.90
21799;DHT22;24973;47.178;15.316;2022-12-10T17:23:08;3.20;99.90
21799;DHT22;24973;47.178;15.316;2022-12-10T17:25:57;3.20;99.90
21799;DHT22;24973;47.178;15.316;2022-12-10T17:28:48;3.20;99.90
21799;DHT22;24973;47.178;15.316;2022-12-10T17:31:37;3.20;99.90
21799;DHT22;24973;47.178;15.316;2022-12-10T17:34:26;3.20;99.90
21799;DHT22;24973;47.178;15.316;2022-12-10T17:37:16;3.20;99.90
21799;DHT22;24973;47.178;15.316;2022-12-10T17:40:14;3.20;99.90
21799;DHT22;24973;47.178;15.316;2022-12-10T17:43:04;3.20;99.90
21799;DHT22;24973;47.178;15.316;2022-12-10T17:45:55;3.20;99.90
21799;DHT22;24973;47.178;15.316;2022-12-10T17:48:45;3.10;99.90
21799;DHT22;24973;47.178;15.316;2022-12-10T17:51:33;3.10;99.90
21799;DHT22;24973;47.178;15.316;2022-12-10T17:54:22;3.10;99.90
21799;DHT22;24973;47.178;15.316;2022-12-10T17:57:15;3.00;99.90
21799;DHT22;24973;47.178;15.316;2022-12-10T18:00:10;3.00;99.90
21799;DHT22;24973;47.178;15.316;2022-12-10T18:03:01;3.10;99.90
21799;DHT22;24973;47.178;15.316;2022-12-10T18:05:50;3.10;99.90
21799;DHT22;24973;47.178;15.316;2022-12-10T18:08:39;3.00;99.90
21799;DHT22;24973;47.178;15.316;2022-12-10T18:11:32;3.10;99.90